createdAt,value
2023-04-20T00:01:39.615Z,2.77
2023-04-20T00:04:07.223Z,2.93
2023-04-20T00:06:34.392Z,3.10
2023-04-20T00:09:01.844Z,3.17
2023-04-20T00:11:29.024Z,3.03
2023-04-20T00:13:56.135Z,3.20
2023-04-20T00:16:23.702Z,3.20
2023-04-20T00:18:51.518Z,3.30
2023-04-20T00:21:21.923Z,3.27
2023-04-20T00:23:49.016Z,3.10
2023-04-20T00:26:16.993Z,3.23
2023-04-20T00:28:44.232Z,3.17
2023-04-20T00:31:11.575Z,3.27
2023-04-20T00:33:38.661Z,3.37
2023-04-20T00:36:05.855Z,3.57
2023-04-20T00:38:32.901Z,3.57
2023-04-20T00:41:00.143Z,3.47
2023-04-20T00:43:27.350Z,3.33
2023-04-20T00:45:54.634Z,3.30
2023-04-20T00:48:22.744Z,3.60
2023-04-20T00:50:50.690Z,3.40
2023-04-20T00:53:18.078Z,3.50
2023-04-20T00:55:45.614Z,3.40
2023-04-20T00:58:13.024Z,3.13
2023-04-20T01:00:40.624Z,3.67
2023-04-20T01:03:08.647Z,3.60
2023-04-20T01:05:36.128Z,3.93
2023-04-20T01:08:03.271Z,3.77
2023-04-20T01:10:30.498Z,3.53
2023-04-20T01:12:57.581Z,3.10
2023-04-20T01:15:24.742Z,3.27
2023-04-20T01:17:52.300Z,3.30
2023-04-20T01:20:20.443Z,2.93
2023-04-20T01:22:48.589Z,3.07
2023-04-20T01:25:16.137Z,2.70
2023-04-20T01:27:43.179Z,2.93
2023-04-20T01:30:17.678Z,2.87
2023-04-20T01:32:44.952Z,3.10
2023-04-20T01:35:12.402Z,3.33
2023-04-20T01:37:40.027Z,2.93
2023-04-20T01:40:09.738Z,3.10
2023-04-20T01:42:36.852Z,3.37
2023-04-20T01:45:05.515Z,3.30
2023-04-20T01:47:32.934Z,3.20
2023-04-20T01:50:00.015Z,3.13
2023-04-20T01:52:27.213Z,3.23
2023-04-20T01:54:54.314Z,3.40
2023-04-20T01:57:21.363Z,2.83
2023-04-20T01:59:48.418Z,2.90
2023-04-20T02:02:15.594Z,2.90
2023-04-20T02:04:42.684Z,3.10
2023-04-20T02:07:09.761Z,2.70
2023-04-20T02:09:36.834Z,3.37
2023-04-20T02:12:04.072Z,3.23
2023-04-20T02:14:31.259Z,3.10
2023-04-20T02:16:59.172Z,3.00
2023-04-20T02:19:26.341Z,2.87
2023-04-20T02:21:53.462Z,3.60
2023-04-20T02:24:20.531Z,3.33
2023-04-20T02:26:47.604Z,3.33
2023-04-20T02:29:14.725Z,2.90
2023-04-20T02:31:41.893Z,3.00
2023-04-20T02:34:09.453Z,2.83
2023-04-20T02:36:36.692Z,2.77
2023-04-20T02:39:04.392Z,2.97
2023-04-20T02:41:31.686Z,3.17
2023-04-20T02:43:58.735Z,3.20
2023-04-20T02:46:25.974Z,3.43
2023-04-20T02:48:53.184Z,3.60
2023-04-20T02:51:20.244Z,3.37
2023-04-20T02:53:47.288Z,3.40
2023-04-20T02:56:14.382Z,3.47
2023-04-20T02:58:41.617Z,3.47
2023-04-20T03:01:08.812Z,3.70
2023-04-20T03:03:36.001Z,3.37
2023-04-20T03:06:03.108Z,3.20
2023-04-20T03:08:30.216Z,3.50
2023-04-20T03:10:57.289Z,3.90
2023-04-20T03:13:24.348Z,3.80
2023-04-20T03:15:51.412Z,3.50
2023-04-20T03:18:18.539Z,3.70
2023-04-20T03:20:45.583Z,3.70
2023-04-20T03:23:12.654Z,3.67
2023-04-20T03:25:40.052Z,3.90
2023-04-20T03:28:07.147Z,4.70
2023-04-20T03:30:34.227Z,4.50
2023-04-20T03:33:01.351Z,4.20
2023-04-20T03:35:28.475Z,4.67
2023-04-20T03:37:55.584Z,4.50
2023-04-20T03:40:22.678Z,4.40
2023-04-20T03:42:49.767Z,5.30
2023-04-20T03:45:16.862Z,4.80
2023-04-20T03:47:43.970Z,4.57
2023-04-20T03:50:11.204Z,5.10
2023-04-20T03:52:38.241Z,4.83
2023-04-20T03:55:05.763Z,5.07
2023-04-20T03:57:33.845Z,4.93
2023-04-20T04:00:01.422Z,4.57
2023-04-20T04:02:28.783Z,4.50
2023-04-20T04:04:56.303Z,4.03
2023-04-20T04:07:23.427Z,4.20
2023-04-20T04:09:50.507Z,4.43
2023-04-20T04:12:17.950Z,4.43
2023-04-20T04:14:45.117Z,4.30
2023-04-20T04:17:14.261Z,4.57
2023-04-20T04:19:41.342Z,4.70
2023-04-20T04:22:08.997Z,5.03
2023-04-20T04:24:38.235Z,5.30
2023-04-20T04:27:06.092Z,4.70
2023-04-20T04:29:35.872Z,4.77
2023-04-20T04:32:04.176Z,5.20
2023-04-20T04:34:34.814Z,5.20
2023-04-20T04:37:02.392Z,5.17
2023-04-20T04:39:29.515Z,4.93
2023-04-20T04:41:57.716Z,5.53
2023-04-20T04:44:26.008Z,5.47
2023-04-20T04:46:53.483Z,5.17
2023-04-20T04:49:21.473Z,5.93
2023-04-20T04:51:48.575Z,5.63
2023-04-20T04:54:15.642Z,5.47
2023-04-20T04:56:42.777Z,4.93
2023-04-20T04:59:09.849Z,5.10
2023-04-20T05:01:36.982Z,5.10
2023-04-20T05:04:04.322Z,4.93
2023-04-20T05:06:32.566Z,4.70
2023-04-20T05:08:59.648Z,4.60
2023-04-20T05:11:26.786Z,4.10
2023-04-20T05:13:54.655Z,4.07
2023-04-20T05:16:21.794Z,3.93
2023-04-20T05:18:48.853Z,4.30
2023-04-20T05:21:15.989Z,3.97
2023-04-20T05:23:44.163Z,4.30
2023-04-20T05:26:11.308Z,4.20
2023-04-20T05:28:38.391Z,4.33
2023-04-20T05:31:07.968Z,4.80
2023-04-20T05:33:35.175Z,4.80
2023-04-20T05:36:02.312Z,4.63
2023-04-20T05:38:29.380Z,4.53
2023-04-20T05:40:56.756Z,4.63
2023-04-20T05:43:23.804Z,4.33
2023-04-20T05:45:51.569Z,4.67
2023-04-20T05:48:18.656Z,4.37
2023-04-20T05:50:45.721Z,4.43
2023-04-20T05:53:12.832Z,4.23
2023-04-20T05:55:39.901Z,4.40
2023-04-20T05:58:06.959Z,4.47
2023-04-20T06:00:34.024Z,4.77
2023-04-20T06:03:02.100Z,4.40
2023-04-20T06:05:29.391Z,4.40
2023-04-20T06:07:56.678Z,4.77
2023-04-20T06:10:23.796Z,4.27
2023-04-20T06:12:50.947Z,5.20
2023-04-20T06:15:18.066Z,4.43
2023-04-20T06:17:45.236Z,4.80
2023-04-20T06:20:12.815Z,4.97
2023-04-20T06:22:44.345Z,4.67
2023-04-20T06:25:11.992Z,4.90
2023-04-20T06:27:39.114Z,4.97
2023-04-20T06:30:06.553Z,4.53
2023-04-20T06:32:33.716Z,4.80
2023-04-20T06:35:00.849Z,4.57
2023-04-20T06:37:28.054Z,5.07
2023-04-20T06:39:55.408Z,4.37
2023-04-20T06:42:22.962Z,4.70
2023-04-20T06:44:50.297Z,4.87
2023-04-20T06:47:17.387Z,5.27
2023-04-20T06:49:44.520Z,5.60
2023-04-20T06:52:11.563Z,5.10
2023-04-20T06:54:38.640Z,5.37
2023-04-20T06:57:05.883Z,5.80
2023-04-20T06:59:33.179Z,5.50
2023-04-20T07:02:00.540Z,5.20
2023-04-20T07:04:27.742Z,5.67
2023-04-20T07:06:54.820Z,5.97
2023-04-20T07:09:23.096Z,6.00
2023-04-20T07:11:50.272Z,5.97
2023-04-20T07:14:17.417Z,6.30
2023-04-20T07:16:44.640Z,5.97
2023-04-20T07:19:11.716Z,5.67
2023-04-20T07:21:38.812Z,5.83
2023-04-20T07:24:06.101Z,6.57
2023-04-20T07:26:33.159Z,5.80
2023-04-20T07:29:00.278Z,6.60
2023-04-20T07:31:27.363Z,6.00
2023-04-20T07:33:54.461Z,5.73
2023-04-20T07:36:22.505Z,6.90
2023-04-20T07:38:50.118Z,6.50
2023-04-20T07:41:17.446Z,6.57
2023-04-20T07:43:44.903Z,7.10
2023-04-20T07:46:20.255Z,6.67
2023-04-20T07:48:47.496Z,6.87
2023-04-20T07:51:14.603Z,6.83
2023-04-20T07:53:41.712Z,7.60
2023-04-20T07:56:08.791Z,6.70
2023-04-20T07:58:38.451Z,6.83
2023-04-20T08:01:05.978Z,6.50
2023-04-20T08:03:33.863Z,6.83
2023-04-20T08:06:01.757Z,7.30
2023-04-20T08:08:29.718Z,6.87
2023-04-20T08:10:58.546Z,7.20
2023-04-20T08:13:27.418Z,7.47
2023-04-20T08:15:54.667Z,7.40
2023-04-20T08:18:21.922Z,7.50
2023-04-20T08:20:51.040Z,7.77
2023-04-20T08:23:18.107Z,7.90
2023-04-20T08:25:45.185Z,7.20
2023-04-20T08:28:24.299Z,7.80
2023-04-20T08:30:56.759Z,7.47
2023-04-20T08:33:24.054Z,7.30
2023-04-20T08:35:51.859Z,7.87
2023-04-20T08:38:23.750Z,7.17
2023-04-20T08:40:57.881Z,7.57
2023-04-20T08:43:25.148Z,7.87
2023-04-20T08:45:53.435Z,8.27
2023-04-20T08:48:21.568Z,8.50
2023-04-20T08:50:49.172Z,7.50
2023-04-20T08:53:16.321Z,8.03
2023-04-20T08:55:43.502Z,7.80
2023-04-20T08:58:10.686Z,8.20
2023-04-20T09:00:46.621Z,8.03
2023-04-20T09:03:14.028Z,8.00
2023-04-20T09:05:41.770Z,8.03
2023-04-20T09:08:09.093Z,8.07
2023-04-20T09:10:40.682Z,8.67
2023-04-20T09:13:07.754Z,8.53
2023-04-20T09:15:35.042Z,8.03
2023-04-20T09:18:14.973Z,8.10
2023-04-20T09:20:42.112Z,8.30
2023-04-20T09:23:13.289Z,8.97
2023-04-20T09:25:43.722Z,8.90
2023-04-20T09:28:11.341Z,8.90
2023-04-20T09:30:45.280Z,8.93
2023-04-20T09:33:14.314Z,8.23
2023-04-20T09:35:45.352Z,8.37
2023-04-20T09:38:16.196Z,7.90
2023-04-20T09:40:43.314Z,9.00
2023-04-20T09:43:15.191Z,8.57
2023-04-20T09:45:42.680Z,8.10
2023-04-20T09:48:09.957Z,7.97
2023-04-20T09:50:48.539Z,8.23
2023-04-20T09:53:17.997Z,8.43
2023-04-20T09:55:49.282Z,8.50
2023-04-20T09:58:19.259Z,8.73
2023-04-20T10:00:46.385Z,8.97
2023-04-20T10:03:17.103Z,9.37
2023-04-20T10:05:44.306Z,9.57
2023-04-20T10:08:11.473Z,8.77
2023-04-20T10:10:46.102Z,9.60
2023-04-20T10:13:13.351Z,9.33
2023-04-20T10:15:41.282Z,9.10
2023-04-20T10:18:23.679Z,9.47
2023-04-20T10:20:51.570Z,9.50
2023-04-20T10:23:19.823Z,8.90
2023-04-20T10:26:00.700Z,9.93
2023-04-20T10:28:44.925Z,10.37
2023-04-20T10:31:16.848Z,9.63
2023-04-20T10:33:51.387Z,10.40
2023-04-20T10:36:28.922Z,9.30
2023-04-20T10:38:56.191Z,9.83
2023-04-20T10:41:23.446Z,9.87
2023-04-20T10:43:50.633Z,9.77
2023-04-20T10:46:26.516Z,9.80
2023-04-20T10:48:57.200Z,9.93
2023-04-20T10:51:24.724Z,10.20
2023-04-20T10:54:05.220Z,9.67
2023-04-20T10:56:39.342Z,9.60
2023-04-20T10:59:07.694Z,10.97
2023-04-20T11:01:34.796Z,10.03
2023-04-20T11:04:02.046Z,10.20
2023-04-20T11:06:29.307Z,10.23
2023-04-20T11:08:56.634Z,10.67
2023-04-20T11:11:25.468Z,11.10
2023-04-20T11:13:52.634Z,9.10
2023-04-20T11:16:20.057Z,9.87
2023-04-20T11:18:54.817Z,10.70
2023-04-20T11:21:22.891Z,9.53
2023-04-20T11:23:50.721Z,9.70
2023-04-20T11:26:18.080Z,9.80
2023-04-20T11:28:56.171Z,10.03
2023-04-20T11:31:23.873Z,9.97
2023-04-20T11:33:51.174Z,9.80
2023-04-20T11:36:22.114Z,9.60
2023-04-20T11:38:49.821Z,10.33
2023-04-20T11:41:17.548Z,10.63
2023-04-20T11:43:45.472Z,10.60
2023-04-20T11:46:34.878Z,10.60
2023-04-20T11:49:02.147Z,10.60
2023-04-20T11:51:29.217Z,10.70
2023-04-20T11:53:56.312Z,10.83
2023-04-20T11:56:23.615Z,10.80
2023-04-20T11:58:50.888Z,11.13
2023-04-20T12:01:18.587Z,11.30
2023-04-20T12:03:47.953Z,11.87
2023-04-20T12:06:15.370Z,12.60
2023-04-20T12:08:43.756Z,12.17
2023-04-20T12:11:11.062Z,11.50
2023-04-20T12:13:38.171Z,11.57
2023-04-20T12:16:05.367Z,12.73
2023-04-20T12:18:32.447Z,11.67
2023-04-20T12:21:00.614Z,11.00
2023-04-20T12:23:27.906Z,11.70
2023-04-20T12:25:55.327Z,12.43
2023-04-20T12:28:22.395Z,11.97
2023-04-20T12:30:49.448Z,11.13
2023-04-20T12:33:16.937Z,11.17
2023-04-20T12:35:45.207Z,11.57
2023-04-20T12:38:14.405Z,11.90
2023-04-20T12:40:41.778Z,11.40
2023-04-20T12:43:08.896Z,11.33
2023-04-20T12:45:36.065Z,11.47
2023-04-20T12:48:03.144Z,10.80
2023-04-20T12:50:30.347Z,11.60
2023-04-20T12:52:58.490Z,10.27
2023-04-20T12:55:26.344Z,10.17
2023-04-20T12:57:53.540Z,11.17
2023-04-20T13:00:21.005Z,10.87
2023-04-20T13:02:48.277Z,10.80
2023-04-20T13:05:15.911Z,10.50
2023-04-20T13:07:42.998Z,10.40
2023-04-20T13:10:10.172Z,10.43
2023-04-20T13:12:37.256Z,10.40
2023-04-20T13:15:04.539Z,10.10
2023-04-20T13:17:31.647Z,10.60
2023-04-20T13:19:58.745Z,10.30
2023-04-20T13:22:25.796Z,10.07
2023-04-20T13:24:52.955Z,10.47
2023-04-20T13:27:20.206Z,10.17
2023-04-20T13:29:47.255Z,9.93
2023-04-20T13:32:14.448Z,9.97
2023-04-20T13:34:41.601Z,9.87
2023-04-20T13:37:08.661Z,10.30
2023-04-20T13:39:36.007Z,10.03
2023-04-20T13:42:03.104Z,9.37
2023-04-20T13:44:30.326Z,10.00
2023-04-20T13:46:57.406Z,10.00
2023-04-20T13:49:24.523Z,9.60
2023-04-20T13:51:51.628Z,10.03
2023-04-20T13:54:19.042Z,9.80
2023-04-20T13:56:46.390Z,9.60
2023-04-20T13:59:13.651Z,9.40
2023-04-20T14:01:40.770Z,10.07
2023-04-20T14:04:09.613Z,9.87
2023-04-20T14:06:36.806Z,10.13
2023-04-20T14:09:03.956Z,10.20
2023-04-20T14:11:31.236Z,10.03
2023-04-20T14:13:58.323Z,10.10
2023-04-20T14:16:25.756Z,9.63
2023-04-20T14:18:53.048Z,9.73
2023-04-20T14:21:20.286Z,9.33
2023-04-20T14:23:50.128Z,10.20
2023-04-20T14:26:17.182Z,9.30
2023-04-20T14:28:45.769Z,9.40
2023-04-20T14:31:12.831Z,9.83
2023-04-20T14:33:41.581Z,9.27
2023-04-20T14:36:08.774Z,10.40
2023-04-20T14:38:35.833Z,10.10
2023-04-20T14:41:02.990Z,10.00
2023-04-20T14:43:30.124Z,9.80
2023-04-20T14:45:58.707Z,10.33
2023-04-20T14:48:26.534Z,10.03
2023-04-20T14:50:54.127Z,10.30
2023-04-20T14:53:21.784Z,10.30
2023-04-20T14:55:49.047Z,10.53
2023-04-20T14:58:19.819Z,10.07
2023-04-20T15:00:46.991Z,10.23
2023-04-20T15:03:14.172Z,10.00
2023-04-20T15:05:41.595Z,10.20
2023-04-20T15:08:08.851Z,10.10
2023-04-20T15:10:37.902Z,10.47
2023-04-20T15:13:05.310Z,10.57
2023-04-20T15:15:46.909Z,9.80
2023-04-20T15:18:15.924Z,10.13
2023-04-20T15:20:43.034Z,9.57
2023-04-20T15:23:10.323Z,10.13
2023-04-20T15:25:37.360Z,9.90
2023-04-20T15:28:05.890Z,10.17
2023-04-20T15:30:33.023Z,9.93
2023-04-20T15:33:05.350Z,9.97
2023-04-20T15:35:33.015Z,9.93
2023-04-20T15:38:00.146Z,10.03
2023-04-20T15:40:27.566Z,9.83
2023-04-20T15:42:55.743Z,9.63
2023-04-20T15:45:23.064Z,9.53
2023-04-20T15:47:51.301Z,9.67
2023-04-20T15:50:18.544Z,9.43
2023-04-20T15:52:49.361Z,9.10
2023-04-20T15:55:16.627Z,8.83
2023-04-20T15:57:44.736Z,8.80
2023-04-20T16:00:12.602Z,8.47
2023-04-20T16:02:40.118Z,9.10
2023-04-20T16:05:07.983Z,7.70
2023-04-20T16:07:35.182Z,8.43
2023-04-20T16:10:02.936Z,7.80
2023-04-20T16:12:30.117Z,8.30
2023-04-20T16:14:57.449Z,7.30
2023-04-20T16:17:24.681Z,7.07
2023-04-20T16:19:51.818Z,6.90
2023-04-20T16:22:19.010Z,6.63
2023-04-20T16:24:46.102Z,6.53
2023-04-20T16:27:13.196Z,7.10
2023-04-20T16:29:40.413Z,7.37
2023-04-20T16:32:07.478Z,6.70
2023-04-20T16:34:34.604Z,7.37
2023-04-20T16:37:01.711Z,6.77
2023-04-20T16:39:28.872Z,7.30
2023-04-20T16:41:57.072Z,7.20
2023-04-20T16:44:24.178Z,7.33
2023-04-20T16:46:51.696Z,7.03
2023-04-20T16:49:18.955Z,6.93
2023-04-20T16:51:46.242Z,7.10
2023-04-20T16:54:13.410Z,7.03
2023-04-20T16:56:40.937Z,7.13
2023-04-20T16:59:08.182Z,6.80
2023-04-20T17:01:35.338Z,6.80
2023-04-20T17:04:02.735Z,6.93
2023-04-20T17:06:29.902Z,6.50
2023-04-20T17:09:01.335Z,7.27
2023-04-20T17:11:28.564Z,6.53
2023-04-20T17:13:56.173Z,6.67
2023-04-20T17:16:23.362Z,6.63
2023-04-20T17:18:51.942Z,7.07
2023-04-20T17:21:18.996Z,6.93
2023-04-20T17:23:47.205Z,6.63
2023-04-20T17:26:14.313Z,7.03
2023-04-20T17:28:41.378Z,7.53
2023-04-20T17:31:08.463Z,7.43
2023-04-20T17:33:35.595Z,7.03
2023-04-20T17:36:02.685Z,6.93
2023-04-20T17:38:29.755Z,8.33
2023-04-20T17:40:56.791Z,7.60
2023-04-20T17:43:23.869Z,7.70
2023-04-20T17:45:50.981Z,7.50
2023-04-20T17:48:18.076Z,8.03
2023-04-20T17:50:48.249Z,8.03
2023-04-20T17:53:15.315Z,7.90
2023-04-20T17:55:42.349Z,7.83
2023-04-20T17:58:09.888Z,8.40
2023-04-20T18:00:36.973Z,7.90
2023-04-20T18:03:04.139Z,7.93
2023-04-20T18:05:31.338Z,8.73
2023-04-20T18:07:58.408Z,8.73
2023-04-20T18:10:25.533Z,8.50
2023-04-20T18:12:53.736Z,8.27
2023-04-20T18:15:21.077Z,8.33
2023-04-20T18:17:48.323Z,8.47
2023-04-20T18:20:15.743Z,8.77
2023-04-20T18:22:42.819Z,8.70
2023-04-20T18:25:10.062Z,8.60
2023-04-20T18:27:37.961Z,8.67
2023-04-20T18:30:05.347Z,8.37
2023-04-20T18:32:33.031Z,7.83
2023-04-20T18:35:00.436Z,9.03
2023-04-20T18:37:27.616Z,9.23
2023-04-20T18:39:54.737Z,8.57
2023-04-20T18:42:21.918Z,8.90
2023-04-20T18:44:50.959Z,8.37
2023-04-20T18:47:18.914Z,8.63
2023-04-20T18:49:46.057Z,8.90
2023-04-20T18:52:13.811Z,8.47
2023-04-20T18:54:40.983Z,8.07
2023-04-20T18:57:08.326Z,8.67
2023-04-20T18:59:35.523Z,8.47
2023-04-20T19:02:02.639Z,8.70
2023-04-20T19:04:30.261Z,8.50
2023-04-20T19:06:57.367Z,7.97
2023-04-20T19:09:24.511Z,8.10
2023-04-20T19:11:51.561Z,7.77
2023-04-20T19:14:18.831Z,8.87
2023-04-20T19:16:46.086Z,8.73
2023-04-20T19:19:13.210Z,8.30
2023-04-20T19:21:40.797Z,8.10
2023-04-20T19:24:08.156Z,8.93
2023-04-20T19:26:35.462Z,8.20
2023-04-20T19:29:02.511Z,8.50
2023-04-20T19:31:36.483Z,8.83
2023-04-20T19:34:04.470Z,8.53
2023-04-20T19:36:32.172Z,8.70
2023-04-20T19:38:59.296Z,9.50
2023-04-20T19:41:26.594Z,9.73
2023-04-20T19:43:53.935Z,9.30
2023-04-20T19:46:21.430Z,10.30
2023-04-20T19:48:48.626Z,10.00
2023-04-20T19:51:15.758Z,11.00
2023-04-20T19:53:42.840Z,11.90
2023-04-20T19:56:09.915Z,10.60
2023-04-20T19:58:36.967Z,10.67
2023-04-20T20:01:04.610Z,11.17
2023-04-20T20:03:31.990Z,11.03
2023-04-20T20:05:59.273Z,11.43
2023-04-20T20:08:26.708Z,11.53
2023-04-20T20:10:53.887Z,11.17
2023-04-20T20:13:21.001Z,11.70
2023-04-20T20:15:48.222Z,11.03
2023-04-20T20:18:15.401Z,11.57
2023-04-20T20:20:42.441Z,11.43
2023-04-20T20:23:09.514Z,10.77
2023-04-20T20:25:36.839Z,10.73
2023-04-20T20:28:03.980Z,11.10
2023-04-20T20:30:31.353Z,10.37
2023-04-20T20:33:01.810Z,10.63
2023-04-20T20:35:33.218Z,11.43
2023-04-20T20:38:00.803Z,11.30
2023-04-20T20:40:27.917Z,12.13
2023-04-20T20:42:55.058Z,12.33
2023-04-20T20:45:22.183Z,11.73
2023-04-20T20:47:49.341Z,12.30
2023-04-20T20:50:16.875Z,12.33
2023-04-20T20:52:43.989Z,12.67
2023-04-20T20:55:11.233Z,12.87
2023-04-20T20:57:38.554Z,12.60
2023-04-20T21:00:10.308Z,12.40
2023-04-20T21:02:38.064Z,12.63
2023-04-20T21:05:06.196Z,12.30
2023-04-20T21:07:33.438Z,12.43
2023-04-20T21:10:00.721Z,11.83
2023-04-20T21:12:27.998Z,11.67
2023-04-20T21:14:55.446Z,12.33
2023-04-20T21:17:22.630Z,11.77
2023-04-20T21:19:49.789Z,11.50
2023-04-20T21:22:16.916Z,10.70
2023-04-20T21:24:44.024Z,10.97
2023-04-20T21:27:11.253Z,11.87
2023-04-20T21:29:38.357Z,11.13
2023-04-20T21:32:05.562Z,10.87
2023-04-20T21:34:32.754Z,10.97
2023-04-20T21:37:05.234Z,11.67
2023-04-20T21:39:32.626Z,11.30
2023-04-20T21:41:59.780Z,11.53
2023-04-20T21:44:27.038Z,11.50
2023-04-20T21:46:54.159Z,11.13
2023-04-20T21:49:21.285Z,11.47
2023-04-20T21:51:48.400Z,11.10
2023-04-20T21:54:15.569Z,11.60
2023-04-20T21:56:42.714Z,10.80
2023-04-20T21:59:09.816Z,11.07
2023-04-20T22:01:36.969Z,11.03
2023-04-20T22:04:04.616Z,11.60
2023-04-20T22:06:32.665Z,11.00
2023-04-20T22:08:59.813Z,10.80
2023-04-20T22:11:26.999Z,10.60
2023-04-20T22:13:54.235Z,11.17
2023-04-20T22:16:21.755Z,11.17
2023-04-20T22:18:49.144Z,11.60
2023-04-20T22:21:16.343Z,11.37
2023-04-20T22:23:43.436Z,10.83
2023-04-20T22:26:10.728Z,11.07
2023-04-20T22:28:37.822Z,11.00
2023-04-20T22:31:05.077Z,11.17
2023-04-20T22:33:32.249Z,11.27
2023-04-20T22:35:59.368Z,11.67
2023-04-20T22:38:26.580Z,10.93
2023-04-20T22:40:53.700Z,11.13
2023-04-20T22:43:21.548Z,11.97
2023-04-20T22:45:48.784Z,11.50
2023-04-20T22:48:15.882Z,10.67
2023-04-20T22:50:42.927Z,10.83
2023-04-20T22:53:10.114Z,10.87
2023-04-20T22:55:37.238Z,10.73
2023-04-20T22:58:04.373Z,11.63
2023-04-20T23:00:31.523Z,10.17
2023-04-20T23:02:58.790Z,10.03
2023-04-20T23:05:26.564Z,10.23
2023-04-20T23:07:53.868Z,10.30
2023-04-20T23:10:21.054Z,10.43
2023-04-20T23:12:48.179Z,10.13
2023-04-20T23:15:15.362Z,11.03
2023-04-20T23:17:42.596Z,10.63
2023-04-20T23:20:10.334Z,10.23
2023-04-20T23:22:37.509Z,9.90
2023-04-20T23:25:04.780Z,9.13
2023-04-20T23:27:31.947Z,9.90
2023-04-20T23:29:58.999Z,10.47
2023-04-20T23:32:26.108Z,11.20
2023-04-20T23:34:53.267Z,10.47
2023-04-20T23:37:20.330Z,10.50
2023-04-20T23:39:47.361Z,10.33
2023-04-20T23:42:14.406Z,10.37
2023-04-20T23:44:41.449Z,9.93
2023-04-20T23:47:08.496Z,10.10
2023-04-20T23:49:35.560Z,10.63
2023-04-20T23:52:03.067Z,10.20
2023-04-20T23:54:32.622Z,9.33
2023-04-20T23:57:00.485Z,9.83
2023-04-20T23:59:27.568Z,8.73
